Terminal Aerodrome Forecast
Issued by NWS Indianapolis, IN

Home | Current Version | Previous Version | Text Only | Print | Product List | Glossary On
Versions: 1 2 3 4 5 6 7 8 9 10 11 12 13 14 15 16 17 18 19 20 21 22 23 24 25 26 27 28 29 30 31 32
000
FTUS43 KIND 291131
TAFIND
TAF
KIND 291131Z 2912/3018 25007KT P6SM VCTS SCT040CB BKN100
      TEMPO 2913/2915 5SM -TSRA BKN035CB
     FM291900 28008KT P6SM VCTS BKN040CB
      TEMPO 2919/2922 4SM -TSRA BKN030CB
     FM292300 31005KT P6SM SCT035 BKN120
     FM300200 31006KT P6SM SCT250=

USA.gov is the U.S. government's official web portal to all federal, state and local government web resources and services.